createdAt,value
2022-10-11T00:00:23.421Z,6.85
2022-10-11T00:02:49.886Z,3.33
2022-10-11T00:05:17.441Z,4.03
2022-10-11T00:07:44.026Z,4.38
2022-10-11T00:10:11.523Z,4.33
2022-10-11T00:12:38.072Z,4.80
2022-10-11T00:15:07.985Z,3.15
2022-10-11T00:17:42.505Z,8.60
2022-10-11T00:20:24.533Z,4.68
2022-10-11T00:22:50.908Z,4.00
2022-10-11T00:25:17.790Z,8.48
2022-10-11T00:27:44.441Z,6.18
2022-10-11T00:30:19.008Z,3.20
2022-10-11T00:32:45.453Z,5.72
2022-10-11T00:35:11.964Z,3.27
2022-10-11T00:37:39.251Z,3.60
2022-10-11T00:40:19.412Z,5.63
2022-10-11T00:42:48.014Z,4.85
2022-10-11T00:45:26.620Z,5.13
2022-10-11T00:48:27.989Z,6.03
2022-10-11T00:51:34.111Z,6.43
2022-10-11T00:54:18.817Z,2.97
2022-10-11T00:56:49.965Z,10.05
2022-10-11T00:59:38.246Z,3.00
2022-10-11T01:02:05.825Z,4.27
2022-10-11T01:05:17.915Z,3.42
2022-10-11T01:07:47.848Z,4.00
2022-10-11T01:10:19.392Z,4.28
2022-10-11T01:13:13.983Z,4.10
2022-10-11T01:15:50.355Z,5.67
2022-10-11T01:18:34.632Z,2.40
2022-10-11T01:21:40.993Z,3.38
2022-10-11T01:24:50.026Z,3.40
2022-10-11T01:27:34.721Z,2.67
2022-10-11T01:30:37.135Z,2.90
2022-10-11T01:33:22.843Z,4.65
2022-10-11T01:36:36.932Z,4.18
2022-10-11T01:39:09.589Z,2.67
2022-10-11T01:41:42.437Z,2.42
2022-10-11T01:44:41.388Z,5.87
2022-10-11T01:47:11.876Z,3.63
2022-10-11T01:49:38.338Z,3.88
2022-10-11T01:52:06.884Z,4.05
2022-10-11T01:55:09.902Z,3.25
2022-10-11T01:58:21.919Z,4.63
2022-10-11T02:00:51.566Z,3.80
2022-10-11T02:03:55.069Z,3.25
2022-10-11T02:06:35.390Z,2.75
2022-10-11T02:09:58.767Z,3.78
2022-10-11T02:12:36.400Z,4.73
2022-10-11T02:15:08.947Z,2.95
2022-10-11T02:17:41.268Z,4.53
2022-10-11T02:20:13.437Z,2.67
2022-10-11T02:22:45.977Z,3.08
2022-10-11T02:26:08.545Z,5.43
2022-10-11T02:28:37.960Z,2.90
2022-10-11T02:31:11.924Z,4.43
2022-10-11T02:34:17.900Z,5.10
2022-10-11T02:36:55.871Z,5.28
2022-10-11T02:39:56.543Z,3.40
2022-10-11T02:42:33.789Z,3.28
2022-10-11T02:45:07.533Z,2.03
2022-10-11T02:47:34.280Z,3.47
2022-10-11T02:50:01.035Z,2.90
2022-10-11T02:52:27.841Z,7.37
2022-10-11T02:55:06.144Z,3.58
2022-10-11T02:57:32.637Z,2.20
2022-10-11T03:00:00.020Z,4.55
2022-10-11T03:02:26.375Z,3.88
2022-10-11T03:04:52.767Z,5.03
2022-10-11T03:07:19.158Z,2.35
2022-10-11T03:10:06.274Z,3.95
2022-10-11T03:12:34.727Z,4.22
2022-10-11T03:15:02.270Z,3.90
2022-10-11T03:17:36.586Z,4.27
2022-10-11T03:20:04.641Z,3.40
2022-10-11T03:22:32.135Z,1.73
2022-10-11T03:25:03.390Z,4.55
2022-10-11T03:27:30.993Z,4.32
2022-10-11T03:29:57.933Z,4.47
2022-10-11T03:32:29.678Z,2.83
2022-10-11T03:35:01.333Z,2.45
2022-10-11T03:37:27.983Z,5.05
2022-10-11T03:39:54.351Z,4.03
2022-10-11T03:43:06.551Z,2.73
2022-10-11T03:45:37.117Z,3.25
2022-10-11T03:48:04.607Z,2.53
2022-10-11T03:50:31.278Z,3.15
2022-10-11T03:53:00.695Z,2.30
2022-10-11T03:55:28.184Z,1.73
2022-10-11T03:58:16.126Z,6.10
2022-10-11T04:00:45.596Z,3.15
2022-10-11T04:03:11.985Z,2.83
2022-10-11T04:05:47.523Z,2.45
2022-10-11T04:08:42.695Z,1.33
2022-10-11T04:11:12.345Z,4.35
2022-10-11T04:13:38.744Z,3.67
2022-10-11T04:16:18.355Z,2.70
2022-10-11T04:18:44.728Z,2.80
2022-10-11T04:21:11.121Z,3.73
2022-10-11T04:23:37.540Z,2.00
2022-10-11T04:26:08.833Z,2.83
2022-10-11T04:28:43.614Z,2.22
2022-10-11T04:31:11.030Z,3.65
2022-10-11T04:33:37.424Z,4.50
2022-10-11T04:36:04.608Z,3.58
2022-10-11T04:38:35.314Z,3.60
2022-10-11T04:41:29.467Z,3.03
2022-10-11T04:44:01.081Z,2.45
2022-10-11T04:46:32.569Z,5.10
2022-10-11T04:49:00.129Z,1.42
2022-10-11T04:52:29.259Z,1.85
2022-10-11T04:54:55.688Z,5.18
2022-10-11T04:57:25.169Z,4.10
2022-10-11T04:59:51.620Z,2.47
2022-10-11T05:02:18.486Z,2.83
2022-10-11T05:04:45.031Z,2.92
2022-10-11T05:07:11.628Z,3.63
2022-10-11T05:09:41.222Z,4.25
2022-10-11T05:12:12.792Z,2.77
2022-10-11T05:14:47.397Z,4.55
2022-10-11T05:17:24.091Z,3.58
2022-10-11T05:19:50.619Z,2.83
2022-10-11T05:22:18.181Z,3.65
2022-10-11T05:24:47.677Z,5.13
2022-10-11T05:27:27.232Z,2.83
2022-10-11T05:29:53.683Z,3.95
2022-10-11T05:32:20.162Z,2.75
2022-10-11T05:34:56.938Z,3.05
2022-10-11T05:37:23.848Z,2.97
2022-10-11T05:40:07.345Z,2.92
2022-10-11T05:42:33.778Z,4.88
2022-10-11T05:45:00.578Z,3.50
2022-10-11T05:47:51.996Z,6.32
2022-10-11T05:50:22.044Z,6.07
2022-10-11T05:52:50.930Z,3.97
2022-10-11T05:55:17.484Z,2.08
2022-10-11T05:57:46.123Z,1.90
2022-10-11T06:00:12.952Z,3.83
2022-10-11T06:02:39.460Z,3.30
2022-10-11T06:05:21.315Z,3.65
2022-10-11T06:07:47.825Z,5.00
2022-10-11T06:10:14.356Z,5.50
2022-10-11T06:12:40.867Z,4.55
2022-10-11T06:15:33.107Z,3.53
2022-10-11T06:17:59.643Z,5.45
2022-10-11T06:20:27.114Z,6.63
2022-10-11T06:22:53.998Z,5.00
2022-10-11T06:25:22.596Z,3.25
2022-10-11T06:27:54.266Z,3.80
2022-10-11T06:30:47.680Z,4.43
2022-10-11T06:33:14.218Z,5.30
2022-10-11T06:36:02.286Z,4.72
2022-10-11T06:38:28.897Z,4.70
2022-10-11T06:41:19.957Z,4.53
2022-10-11T06:43:46.785Z,6.13
2022-10-11T06:46:20.492Z,4.78
2022-10-11T06:48:48.094Z,3.80
2022-10-11T06:51:35.442Z,5.78
2022-10-11T06:54:17.373Z,3.50
2022-10-11T06:56:45.714Z,5.85
2022-10-11T06:59:15.039Z,6.57
2022-10-11T07:01:42.048Z,4.85
2022-10-11T07:04:08.950Z,6.90
2022-10-11T07:06:40.612Z,4.13
2022-10-11T07:09:08.619Z,7.70
2022-10-11T07:11:37.965Z,3.58
2022-10-11T07:14:16.892Z,4.95
2022-10-11T07:16:43.401Z,5.15
2022-10-11T07:19:11.946Z,7.27
2022-10-11T07:21:38.534Z,7.18
2022-10-11T07:24:05.433Z,4.15
2022-10-11T07:26:38.321Z,5.72
2022-10-11T07:29:06.906Z,4.18
2022-10-11T07:31:33.363Z,6.37
2022-10-11T07:34:30.829Z,5.55
2022-10-11T07:36:58.924Z,5.85
2022-10-11T07:39:25.501Z,5.65
2022-10-11T07:41:52.303Z,9.13
2022-10-11T07:44:19.358Z,6.23
2022-10-11T07:46:51.153Z,6.32
2022-10-11T07:49:17.842Z,7.63
2022-10-11T07:51:44.342Z,5.55
2022-10-11T07:54:10.892Z,6.88
2022-10-11T07:56:38.295Z,8.40
2022-10-11T07:59:04.788Z,5.38
2022-10-11T08:01:32.295Z,4.35
2022-10-11T08:03:59.223Z,4.38
2022-10-11T08:06:31.597Z,6.10
2022-10-11T08:09:00.589Z,5.53
2022-10-11T08:11:37.678Z,7.53
2022-10-11T08:14:23.971Z,7.97
2022-10-11T08:17:16.381Z,7.22
2022-10-11T08:19:48.142Z,7.10
2022-10-11T08:22:14.633Z,5.17
2022-10-11T08:24:49.489Z,5.97
2022-10-11T08:27:15.940Z,8.05
2022-10-11T08:29:42.337Z,6.57
2022-10-11T08:32:11.993Z,8.65
2022-10-11T08:34:38.401Z,7.07
2022-10-11T08:37:05.266Z,9.63
2022-10-11T08:39:31.884Z,5.78
2022-10-11T08:42:28.321Z,5.28
2022-10-11T08:45:10.968Z,4.78
2022-10-11T08:47:46.076Z,9.07
2022-10-11T08:50:21.854Z,4.93
2022-10-11T08:52:58.129Z,5.53
2022-10-11T08:55:31.834Z,7.63
2022-10-11T08:57:59.468Z,6.53
2022-10-11T09:00:31.022Z,5.27
2022-10-11T09:03:15.732Z,6.85
2022-10-11T09:06:14.660Z,5.20
2022-10-11T09:09:12.272Z,4.50
2022-10-11T09:12:12.885Z,6.15
2022-10-11T09:15:03.891Z,5.00
2022-10-11T09:17:49.694Z,4.40
2022-10-11T09:20:37.769Z,8.30
2022-10-11T09:23:25.098Z,8.32
2022-10-11T09:26:02.810Z,6.93
2022-10-11T09:28:49.900Z,6.73
2022-10-11T09:31:17.771Z,4.78
2022-10-11T09:33:50.722Z,7.00
2022-10-11T09:36:31.490Z,7.43
2022-10-11T09:39:21.273Z,6.97
2022-10-11T09:42:02.302Z,4.17
2022-10-11T09:45:05.952Z,4.78
2022-10-11T09:47:46.465Z,5.13
2022-10-11T09:50:26.202Z,7.45
2022-10-11T09:52:56.296Z,6.03
2022-10-11T09:56:02.292Z,6.73
2022-10-11T09:59:05.295Z,6.72
2022-10-11T10:01:33.656Z,4.15
2022-10-11T10:04:10.504Z,6.55
2022-10-11T10:06:38.067Z,7.45
2022-10-11T10:09:37.207Z,5.13
2022-10-11T10:12:15.690Z,6.85
2022-10-11T10:15:00.238Z,6.65
2022-10-11T10:17:33.982Z,4.95
2022-10-11T10:20:05.834Z,4.80
2022-10-11T10:22:41.294Z,6.20
2022-10-11T10:25:32.389Z,4.20
2022-10-11T10:28:05.227Z,3.20
2022-10-11T10:30:36.293Z,3.83
2022-10-11T10:33:14.199Z,6.25
2022-10-11T10:36:00.437Z,6.27
2022-10-11T10:38:41.014Z,8.68
2022-10-11T10:41:16.997Z,9.52
2022-10-11T10:43:49.549Z,7.05
2022-10-11T10:46:42.193Z,5.82
2022-10-11T10:49:34.916Z,8.77
2022-10-11T10:52:16.917Z,3.75
2022-10-11T10:55:02.206Z,4.85
2022-10-11T10:57:41.183Z,4.55
2022-10-11T11:00:21.135Z,3.50
2022-10-11T11:03:08.619Z,9.20
2022-10-11T11:05:45.824Z,6.28
2022-10-11T11:08:16.439Z,6.50
2022-10-11T11:11:21.683Z,4.55
2022-10-11T11:14:00.392Z,3.58
2022-10-11T11:16:31.804Z,4.37
2022-10-11T11:19:04.156Z,6.10
2022-10-11T11:21:58.657Z,5.63
2022-10-11T11:24:46.228Z,12.35
2022-10-11T11:27:31.596Z,6.82
2022-10-11T11:30:22.165Z,9.63
2022-10-11T11:33:13.435Z,4.63
2022-10-11T11:35:48.414Z,7.75
2022-10-11T11:38:18.451Z,5.95
2022-10-11T11:40:51.889Z,4.20
2022-10-11T11:43:25.254Z,7.80
2022-10-11T11:45:55.739Z,7.47
2022-10-11T11:48:25.399Z,7.45
2022-10-11T11:51:17.683Z,6.68
2022-10-11T11:54:11.218Z,6.68
2022-10-11T11:56:49.772Z,4.37
2022-10-11T11:59:24.908Z,8.30
2022-10-11T12:02:29.379Z,3.70
2022-10-11T12:04:57.244Z,6.53
2022-10-11T12:07:26.408Z,4.22
2022-10-11T12:10:13.949Z,4.27
2022-10-11T12:12:40.650Z,4.68
2022-10-11T12:15:10.179Z,6.45
2022-10-11T12:17:54.755Z,6.22
2022-10-11T12:20:23.404Z,3.42
2022-10-11T12:22:49.703Z,4.83
2022-10-11T12:25:18.546Z,4.25
2022-10-11T12:27:51.338Z,5.93
2022-10-11T12:30:42.458Z,3.40
2022-10-11T12:33:17.100Z,5.78
2022-10-11T12:35:52.604Z,4.83
2022-10-11T12:38:29.194Z,6.50
2022-10-11T12:41:19.951Z,3.08
2022-10-11T12:43:49.216Z,7.82
2022-10-11T12:46:27.902Z,5.88
2022-10-11T12:49:29.013Z,3.23
2022-10-11T12:52:24.116Z,3.72
2022-10-11T12:55:26.553Z,4.93
2022-10-11T12:58:07.419Z,4.90
2022-10-11T13:01:03.881Z,4.47
2022-10-11T13:03:57.752Z,4.63
2022-10-11T13:06:28.296Z,2.70
2022-10-11T13:09:20.971Z,5.18
2022-10-11T13:11:59.469Z,5.80
2022-10-11T13:14:27.419Z,3.38
2022-10-11T13:17:03.943Z,4.67
2022-10-11T13:19:32.525Z,8.70
2022-10-11T13:22:02.582Z,5.07
2022-10-11T13:24:37.713Z,3.42
2022-10-11T13:27:05.578Z,4.53
2022-10-11T13:29:35.257Z,6.47
2022-10-11T13:32:24.599Z,4.80
2022-10-11T13:34:58.570Z,6.05
2022-10-11T13:37:27.300Z,6.93
2022-10-11T13:39:55.426Z,5.35
2022-10-11T13:42:29.647Z,6.10
2022-10-11T13:44:56.418Z,8.88
2022-10-11T13:47:27.219Z,3.83
2022-10-11T13:50:15.594Z,9.32
2022-10-11T13:52:59.318Z,7.82
2022-10-11T13:55:35.283Z,4.27
2022-10-11T13:58:10.645Z,5.32
2022-10-11T14:00:39.523Z,9.90
2022-10-11T14:03:18.670Z,5.95
2022-10-11T14:05:57.936Z,6.53
2022-10-11T14:08:30.620Z,4.43
2022-10-11T14:11:01.309Z,7.22
2022-10-11T14:13:38.667Z,6.15
2022-10-11T14:16:13.988Z,4.95
2022-10-11T14:18:47.349Z,4.22
2022-10-11T14:21:20.187Z,3.17
2022-10-11T14:23:47.541Z,8.30
2022-10-11T14:26:18.730Z,4.32
2022-10-11T14:28:46.092Z,4.78
2022-10-11T14:31:12.569Z,6.43
2022-10-11T14:33:38.966Z,5.37
2022-10-11T14:36:05.849Z,7.07
2022-10-11T14:38:32.312Z,6.85
2022-10-11T14:40:58.676Z,7.55
2022-10-11T14:43:25.081Z,7.15
2022-10-11T14:45:51.526Z,5.20
2022-10-11T14:48:36.610Z,7.15
2022-10-11T14:51:05.962Z,12.05
2022-10-11T14:53:32.434Z,5.57
2022-10-11T14:55:58.948Z,5.82
2022-10-11T14:58:25.382Z,4.67
2022-10-11T15:00:51.782Z,5.78
2022-10-11T15:03:18.250Z,4.45
2022-10-11T15:05:44.733Z,6.35
2022-10-11T15:08:11.521Z,9.48
2022-10-11T15:10:40.048Z,6.53
2022-10-11T15:13:07.442Z,7.55
2022-10-11T15:15:36.886Z,6.57
2022-10-11T15:18:05.770Z,5.53
2022-10-11T15:20:35.654Z,8.15
2022-10-11T15:23:02.280Z,5.70
2022-10-11T15:25:30.031Z,6.00
2022-10-11T15:28:27.277Z,4.80
2022-10-11T15:31:00.475Z,7.30
2022-10-11T15:33:26.977Z,3.38
2022-10-11T15:36:01.701Z,8.57
2022-10-11T15:38:28.460Z,8.82
2022-10-11T15:40:55.330Z,6.68
2022-10-11T15:43:25.007Z,7.10
2022-10-11T15:45:51.992Z,8.93
2022-10-11T15:48:19.197Z,9.87
2022-10-11T15:50:46.389Z,10.75
2022-10-11T15:53:30.002Z,7.72
2022-10-11T15:56:03.857Z,3.72
2022-10-11T15:58:41.078Z,6.78
2022-10-11T16:01:19.800Z,5.63
2022-10-11T16:03:48.396Z,7.85
2022-10-11T16:06:15.238Z,5.30
2022-10-11T16:08:41.628Z,9.98
2022-10-11T16:11:09.641Z,4.22
2022-10-11T16:13:36.421Z,4.80
2022-10-11T16:16:05.122Z,7.80
2022-10-11T16:18:35.292Z,6.13
2022-10-11T16:21:06.980Z,5.78
2022-10-11T16:23:33.694Z,5.20
2022-10-11T16:26:06.575Z,8.10
2022-10-11T16:28:33.543Z,5.25
2022-10-11T16:31:05.180Z,7.63
2022-10-11T16:33:31.828Z,7.22
2022-10-11T16:36:18.197Z,6.32
2022-10-11T16:38:44.616Z,7.60
2022-10-11T16:41:13.080Z,7.78
2022-10-11T16:43:39.435Z,9.98
2022-10-11T16:46:06.017Z,7.95
2022-10-11T16:48:45.760Z,9.25
2022-10-11T16:51:12.233Z,6.47
2022-10-11T16:53:38.806Z,8.77
2022-10-11T16:56:38.834Z,8.45
2022-10-11T16:59:07.940Z,11.45
2022-10-11T17:01:34.485Z,6.70
2022-10-11T17:04:00.885Z,13.53
2022-10-11T17:06:28.523Z,9.38
2022-10-11T17:08:55.197Z,8.13
2022-10-11T17:11:22.473Z,11.73
2022-10-11T17:13:55.233Z,7.50
2022-10-11T17:16:22.786Z,13.93
2022-10-11T17:18:49.870Z,8.50
2022-10-11T17:21:18.661Z,9.73
2022-10-11T17:23:45.482Z,10.02
2022-10-11T17:26:21.800Z,7.70
2022-10-11T17:28:48.388Z,9.40
2022-10-11T17:31:15.097Z,8.07
2022-10-11T17:33:41.611Z,8.20
2022-10-11T17:36:19.464Z,11.35
2022-10-11T17:38:45.993Z,10.38
2022-10-11T17:41:12.972Z,11.70
2022-10-11T17:43:39.673Z,8.30
2022-10-11T17:46:07.637Z,11.35
2022-10-11T17:48:36.616Z,11.60
2022-10-11T17:51:07.768Z,10.32
2022-10-11T17:53:34.317Z,10.30
2022-10-11T17:56:04.416Z,15.60
2022-10-11T17:58:30.855Z,15.57
2022-10-11T18:01:02.102Z,14.68
2022-10-11T18:03:28.642Z,14.88
2022-10-11T18:05:55.040Z,14.23
2022-10-11T18:08:21.661Z,18.08
2022-10-11T18:10:48.017Z,21.27
2022-10-11T18:13:15.415Z,17.88
2022-10-11T18:15:41.863Z,18.65
2022-10-11T18:18:15.624Z,21.43
2022-10-11T18:20:47.531Z,20.65
2022-10-11T18:23:17.426Z,24.90
2022-10-11T18:25:44.784Z,19.65
2022-10-11T18:28:11.788Z,24.60
2022-10-11T18:30:46.608Z,25.23
2022-10-11T18:33:14.732Z,22.77
2022-10-11T18:35:41.678Z,21.17
2022-10-11T18:38:08.367Z,26.52
2022-10-11T18:40:42.223Z,29.33
2022-10-11T18:43:11.160Z,28.10
2022-10-11T18:45:37.535Z,26.67
2022-10-11T18:48:04.041Z,23.63
2022-10-11T18:50:34.838Z,24.42
2022-10-11T18:53:27.886Z,26.42
2022-10-11T18:56:14.552Z,23.37
2022-10-11T18:58:42.103Z,22.83
2022-10-11T19:01:28.660Z,22.92
2022-10-11T19:03:57.679Z,25.40
2022-10-11T19:06:48.334Z,23.73
2022-10-11T19:09:21.735Z,26.30
2022-10-11T19:11:52.480Z,32.47
2022-10-11T19:14:21.731Z,32.58
2022-10-11T19:16:51.416Z,34.72
2022-10-11T19:19:29.009Z,36.40
2022-10-11T19:21:57.469Z,35.60
2022-10-11T19:24:27.360Z,33.40
2022-10-11T19:26:58.537Z,30.17
2022-10-11T19:29:28.682Z,30.23
2022-10-11T19:32:03.508Z,31.02
2022-10-11T19:34:31.714Z,33.73
2022-10-11T19:37:21.501Z,31.98
2022-10-11T19:39:47.848Z,36.90
2022-10-11T19:42:14.232Z,34.65
2022-10-11T19:44:40.628Z,34.72
2022-10-11T19:47:07.068Z,41.67
2022-10-11T19:49:33.569Z,38.28
2022-10-11T19:52:01.176Z,39.75
2022-10-11T19:54:27.535Z,42.45
2022-10-11T19:56:54.248Z,45.13
2022-10-11T19:59:20.791Z,48.20
2022-10-11T20:01:52.246Z,45.55
2022-10-11T20:07:37.863Z,42.63
2022-10-11T20:10:04.725Z,42.22
2022-10-11T20:12:33.154Z,42.67
2022-10-11T20:14:59.689Z,39.35
2022-10-11T20:17:46.057Z,37.42
2022-10-11T20:20:12.416Z,37.38
2022-10-11T20:22:38.781Z,35.03
2022-10-11T20:25:05.629Z,28.20
2022-10-11T20:27:32.214Z,32.92
2022-10-11T20:29:58.673Z,31.17
2022-10-11T20:32:28.403Z,36.95
2022-10-11T20:34:54.841Z,37.08
2022-10-11T20:37:21.256Z,41.23
2022-10-11T20:39:51.765Z,44.85
2022-10-11T20:42:18.158Z,50.53
2022-10-11T20:45:20.792Z,57.53
2022-10-11T20:47:48.300Z,54.10
2022-10-11T20:50:15.457Z,54.17
2022-10-11T20:52:43.865Z,54.67
2022-10-11T20:55:10.231Z,51.88
2022-10-11T20:57:36.655Z,55.63
2022-10-11T21:00:17.635Z,53.53
2022-10-11T21:02:44.096Z,58.37
2022-10-11T21:05:11.322Z,50.72
2022-10-11T21:07:37.704Z,52.70
2022-10-11T21:10:04.344Z,46.88
2022-10-11T21:12:33.961Z,44.55
2022-10-11T21:15:14.817Z,44.57
2022-10-11T21:17:41.189Z,42.25
2022-10-11T21:20:07.993Z,39.42
2022-10-11T21:22:34.564Z,39.90
2022-10-11T21:25:01.080Z,38.83
2022-10-11T21:27:27.532Z,35.87
2022-10-11T21:29:53.900Z,34.58
2022-10-11T21:32:26.628Z,29.98
2022-10-11T21:35:10.129Z,37.85
2022-10-11T21:37:36.869Z,33.22
2022-10-11T21:40:24.033Z,33.90
2022-10-11T21:42:54.601Z,36.13
2022-10-11T21:45:21.049Z,32.60
2022-10-11T21:47:47.668Z,35.65
2022-10-11T21:50:14.126Z,34.08
2022-10-11T21:52:43.616Z,36.27
2022-10-11T21:55:30.042Z,32.85
2022-10-11T21:58:20.459Z,32.72
2022-10-11T22:00:46.904Z,29.92
2022-10-11T22:03:13.297Z,32.97
2022-10-11T22:06:01.476Z,30.47
2022-10-11T22:08:27.847Z,29.38
2022-10-11T22:10:57.055Z,29.17
2022-10-11T22:13:24.395Z,22.60
2022-10-11T22:15:52.902Z,29.67
2022-10-11T22:18:19.488Z,25.77
2022-10-11T22:21:18.843Z,23.30
2022-10-11T22:23:55.453Z,25.83
2022-10-11T22:26:36.180Z,22.38
2022-10-11T22:29:07.653Z,23.25
2022-10-11T22:31:35.622Z,23.43
2022-10-11T22:34:03.076Z,19.58
2022-10-11T22:36:30.629Z,20.33
2022-10-11T22:38:57.148Z,22.52
2022-10-11T22:41:23.679Z,18.17
2022-10-11T22:43:50.485Z,18.47
2022-10-11T22:46:17.484Z,16.15
2022-10-11T22:48:43.867Z,15.60
2022-10-11T22:52:16.186Z,16.98
2022-10-11T22:55:33.976Z,12.90
2022-10-11T22:58:25.951Z,16.70
2022-10-11T23:00:52.452Z,15.32
2022-10-11T23:03:19.366Z,13.85
2022-10-11T23:05:56.692Z,14.65
2022-10-11T23:08:29.157Z,14.75
2022-10-11T23:10:55.588Z,14.17
2022-10-11T23:13:22.068Z,12.05
2022-10-11T23:15:48.431Z,11.27
2022-10-11T23:18:17.863Z,13.07
2022-10-11T23:20:44.486Z,12.13
2022-10-11T23:23:10.935Z,13.27
2022-10-11T23:25:37.312Z,12.82
2022-10-11T23:28:03.865Z,12.52
2022-10-11T23:30:30.353Z,11.50
2022-10-11T23:33:07.919Z,10.43
2022-10-11T23:35:34.676Z,15.17
2022-10-11T23:38:16.355Z,16.30
2022-10-11T23:40:44.813Z,12.50
2022-10-11T23:43:11.220Z,10.95
2022-10-11T23:45:37.628Z,11.13
2022-10-11T23:48:04.435Z,9.97
2022-10-11T23:50:30.817Z,12.45
2022-10-11T23:52:57.204Z,10.57
2022-10-11T23:55:28.760Z,9.68
2022-10-11T23:57:55.199Z,8.70
